createdAt,value
2016-08-15T00:00:39.752Z,20.86
2016-08-15T00:01:33.904Z,20.88
2016-08-15T00:02:28.196Z,20.85
2016-08-15T00:03:23.795Z,20.85
2016-08-15T00:04:37.479Z,20.93
2016-08-15T00:05:33.508Z,20.86
2016-08-15T00:06:33.634Z,20.85
2016-08-15T00:07:40.054Z,20.86
2016-08-15T00:08:26.254Z,20.85
2016-08-15T00:09:30.855Z,20.85
2016-08-15T00:10:32.931Z,20.85
2016-08-15T00:11:26.923Z,20.85
2016-08-15T00:12:27.737Z,20.85
2016-08-15T00:13:37.950Z,20.85
2016-08-15T00:14:29.323Z,20.89
2016-08-15T00:15:33.890Z,20.85
2016-08-15T00:16:28.647Z,20.85
2016-08-15T00:17:39.058Z,20.85
2016-08-15T00:18:21.572Z,20.85
2016-08-15T00:19:32.760Z,20.85
2016-08-15T00:20:39.734Z,20.86
2016-08-15T00:21:28.504Z,20.86
2016-08-15T00:22:38.375Z,20.86
2016-08-15T00:23:34.368Z,20.85
2016-08-15T00:24:34.472Z,20.86
2016-08-15T00:25:36.395Z,20.86
2016-08-15T00:26:33.513Z,20.85
2016-08-15T00:27:37.270Z,20.85
2016-08-15T00:28:21.745Z,20.92
2016-08-15T00:29:30.494Z,20.86
2016-08-15T00:30:33.503Z,20.85
2016-08-15T00:31:36.479Z,20.86
2016-08-15T00:32:27.290Z,20.85
2016-08-15T00:33:35.965Z,20.85
2016-08-15T00:34:28.218Z,20.85
2016-08-15T00:35:42.993Z,20.85
2016-08-15T00:36:37.406Z,20.85
2016-08-15T00:37:33.421Z,20.87
2016-08-15T00:38:31.411Z,20.85
2016-08-15T00:39:33.567Z,20.86
2016-08-15T00:40:27.666Z,20.85
2016-08-15T00:41:33.960Z,20.85
2016-08-15T00:42:36.598Z,20.86
2016-08-15T00:43:45.508Z,20.89
2016-08-15T00:44:34.050Z,20.85
2016-08-15T00:45:14.916Z,20.85
2016-08-15T00:46:15.028Z,20.85
2016-08-15T00:47:27.827Z,20.85
2016-08-15T00:48:34.928Z,20.85
2016-08-15T00:49:27.765Z,20.85
2016-08-15T00:50:40.970Z,21.41
2016-08-15T00:51:26.042Z,21.45
2016-08-15T00:52:33.390Z,20.94
2016-08-15T00:53:26.784Z,20.91
2016-08-15T00:54:44.720Z,21.42
2016-08-15T00:55:33.076Z,21.46
2016-08-15T00:56:31.260Z,21.48
2016-08-15T00:57:36.886Z,21.11
2016-08-15T00:58:27.586Z,20.96
2016-08-15T00:59:32.308Z,20.91
2016-08-15T01:00:46.388Z,20.89
2016-08-15T01:01:35.841Z,20.88
2016-08-15T01:02:34.551Z,20.87
2016-08-15T01:03:34.829Z,20.86
2016-08-15T01:04:38.400Z,20.86
2016-08-15T01:05:32.802Z,20.85
2016-08-15T01:06:32.874Z,20.86
2016-08-15T01:07:32.364Z,20.86
2016-08-15T01:08:37.548Z,20.87
2016-08-15T01:09:27.592Z,20.85
2016-08-15T01:10:39.869Z,20.85
2016-08-15T01:11:39.394Z,20.84
2016-08-15T01:12:36.399Z,20.85
2016-08-15T01:13:33.882Z,20.85
2016-08-15T01:14:33.128Z,20.85
2016-08-15T01:15:30.152Z,20.85
2016-08-15T01:16:32.137Z,20.84
2016-08-15T01:17:33.485Z,21.39
2016-08-15T01:18:36.333Z,21.45
2016-08-15T01:19:30.093Z,21.48
2016-08-15T01:20:36.692Z,20.95
2016-08-15T01:21:38.552Z,20.90
2016-08-15T01:22:34.251Z,20.92
2016-08-15T01:23:33.357Z,20.85
2016-08-15T01:24:27.366Z,20.87
2016-08-15T01:25:32.895Z,20.86
2016-08-15T01:26:27.612Z,20.85
2016-08-15T01:27:28.418Z,20.85
2016-08-15T01:28:26.703Z,20.85
2016-08-15T01:29:28.350Z,20.85
2016-08-15T01:30:35.483Z,20.85
2016-08-15T01:31:36.171Z,20.85
2016-08-15T01:32:34.654Z,20.85
2016-08-15T01:33:28.212Z,20.85
2016-08-15T01:34:24.199Z,20.85
2016-08-15T01:35:33.998Z,20.85
2016-08-15T01:36:41.273Z,20.85
2016-08-15T01:37:36.566Z,20.84
2016-08-15T01:38:31.785Z,20.85
2016-08-15T01:39:34.452Z,20.85
2016-08-15T01:40:58.000Z,20.84
2016-08-15T01:41:37.125Z,20.84
2016-08-15T01:42:34.393Z,20.84
2016-08-15T01:43:35.696Z,20.87
2016-08-15T01:44:33.851Z,21.38
2016-08-15T01:45:31.571Z,21.06
2016-08-15T01:46:33.068Z,20.92
2016-08-15T01:47:29.109Z,20.88
2016-08-15T01:48:38.566Z,20.90
2016-08-15T01:49:35.854Z,21.39
2016-08-15T01:50:31.562Z,21.46
2016-08-15T01:51:32.450Z,21.09
2016-08-15T01:52:32.164Z,20.94
2016-08-15T01:53:33.494Z,20.89
2016-08-15T01:54:28.279Z,20.88
2016-08-15T01:55:33.753Z,20.85
2016-08-15T01:56:39.629Z,20.85
2016-08-15T01:57:31.866Z,20.85
2016-08-15T01:58:32.424Z,20.84
2016-08-15T01:59:26.199Z,20.84
2016-08-15T02:00:33.757Z,20.84
2016-08-15T02:01:33.759Z,20.88
2016-08-15T02:02:39.692Z,20.88
2016-08-15T02:03:25.955Z,20.83
2016-08-15T02:04:32.303Z,20.84
2016-08-15T02:05:27.682Z,20.84
2016-08-15T02:06:28.152Z,20.85
2016-08-15T02:07:37.107Z,20.83
2016-08-15T02:08:29.137Z,20.84
2016-08-15T02:09:34.686Z,20.83
2016-08-15T02:10:32.912Z,20.84
2016-08-15T02:11:33.199Z,20.83
2016-08-15T02:12:34.404Z,20.84
2016-08-15T02:13:33.420Z,20.85
2016-08-15T02:14:40.372Z,20.83
2016-08-15T02:15:27.268Z,20.83
2016-08-15T02:16:34.190Z,20.83
2016-08-15T02:17:33.889Z,20.83
2016-08-15T02:18:32.887Z,20.91
2016-08-15T02:19:32.462Z,21.38
2016-08-15T02:20:38.391Z,21.42
2016-08-15T02:21:45.143Z,21.46
2016-08-15T02:22:36.406Z,21.47
2016-08-15T02:23:31.783Z,21.48
2016-08-15T02:24:25.041Z,21.49
2016-08-15T02:25:32.428Z,21.49
2016-08-15T02:26:26.563Z,21.49
2016-08-15T02:27:25.595Z,21.49
2016-08-15T02:28:38.885Z,21.49
2016-08-15T02:29:28.698Z,21.50
2016-08-15T02:30:33.612Z,21.49
2016-08-15T02:31:38.831Z,21.50
2016-08-15T02:32:40.241Z,21.11
2016-08-15T02:33:33.605Z,20.94
2016-08-15T02:34:22.237Z,20.90
2016-08-15T02:35:34.440Z,20.90
2016-08-15T02:36:26.330Z,20.86
2016-08-15T02:37:37.834Z,20.85
2016-08-15T02:38:44.182Z,20.85
2016-08-15T02:39:32.590Z,20.83
2016-08-15T02:40:40.751Z,20.84
2016-08-15T02:41:34.770Z,20.83
2016-08-15T02:42:44.079Z,20.83
2016-08-15T02:43:34.602Z,20.83
2016-08-15T02:44:44.725Z,20.83
2016-08-15T02:45:34.731Z,20.83
2016-08-15T02:46:31.613Z,20.83
2016-08-15T02:47:22.702Z,20.82
2016-08-15T02:48:26.784Z,20.82
2016-08-15T02:49:37.001Z,20.83
2016-08-15T02:50:32.612Z,20.84
2016-08-15T02:51:16.359Z,20.82
2016-08-15T02:52:34.790Z,20.81
2016-08-15T02:53:33.595Z,20.83
2016-08-15T02:54:28.340Z,20.82
2016-08-15T02:55:27.791Z,21.35
2016-08-15T02:56:27.216Z,20.88
2016-08-15T02:57:33.938Z,20.85
2016-08-15T02:58:36.572Z,20.83
2016-08-15T02:59:27.352Z,20.83
2016-08-15T03:00:44.300Z,20.85
2016-08-15T03:01:34.221Z,20.83
2016-08-15T03:02:28.503Z,20.83
2016-08-15T03:03:23.838Z,20.82
2016-08-15T03:04:32.026Z,20.83
2016-08-15T03:05:27.755Z,20.83
2016-08-15T03:06:32.285Z,20.82
2016-08-15T03:07:29.180Z,20.85
2016-08-15T03:08:34.001Z,20.82
2016-08-15T03:09:32.521Z,20.81
2016-08-15T03:10:43.631Z,20.83
2016-08-15T03:11:35.169Z,20.82
2016-08-15T03:12:32.537Z,20.82
2016-08-15T03:13:39.316Z,20.82
2016-08-15T03:14:28.499Z,20.83
2016-08-15T03:15:37.383Z,20.82
2016-08-15T03:16:35.506Z,20.82
2016-08-15T03:17:40.151Z,20.82
2016-08-15T03:18:32.511Z,20.82
2016-08-15T03:19:32.893Z,20.81
2016-08-15T03:20:26.768Z,21.37
2016-08-15T03:21:29.109Z,21.41
2016-08-15T03:22:32.571Z,21.44
2016-08-15T03:23:32.675Z,21.46
2016-08-15T03:24:28.082Z,21.46
2016-08-15T03:25:28.300Z,21.49
2016-08-15T03:26:39.343Z,21.47
2016-08-15T03:27:39.171Z,21.48
2016-08-15T03:28:40.420Z,21.48
2016-08-15T03:29:28.765Z,21.49
2016-08-15T03:30:31.734Z,21.48
2016-08-15T03:31:40.070Z,20.97
2016-08-15T03:32:27.968Z,20.88
2016-08-15T03:33:33.575Z,20.88
2016-08-15T03:34:34.583Z,20.84
2016-08-15T03:35:34.850Z,20.84
2016-08-15T03:36:34.022Z,20.84
2016-08-15T03:37:25.817Z,20.82
2016-08-15T03:38:32.041Z,20.82
2016-08-15T03:39:36.638Z,20.81
2016-08-15T03:40:34.083Z,20.82
2016-08-15T03:41:36.057Z,20.82
2016-08-15T03:42:31.704Z,20.82
2016-08-15T03:43:41.403Z,20.82
2016-08-15T03:44:14.495Z,20.81
2016-08-15T03:45:26.863Z,20.81
2016-08-15T03:46:33.589Z,20.81
2016-08-15T03:47:22.783Z,20.81
2016-08-15T03:48:26.807Z,20.82
2016-08-15T03:49:40.228Z,20.81
2016-08-15T03:50:32.805Z,20.79
2016-08-15T03:51:33.550Z,20.81
2016-08-15T03:52:37.588Z,20.83
2016-08-15T03:53:31.555Z,20.81
2016-08-15T03:54:37.393Z,20.83
2016-08-15T03:55:26.651Z,20.81
2016-08-15T03:56:34.111Z,20.82
2016-08-15T03:57:28.871Z,20.82
2016-08-15T03:58:34.358Z,20.82
2016-08-15T03:59:32.328Z,20.81
2016-08-15T04:00:33.684Z,20.81
2016-08-15T04:01:33.591Z,20.81
2016-08-15T04:02:32.370Z,20.82
2016-08-15T04:03:27.560Z,20.81
2016-08-15T04:04:42.981Z,20.81
2016-08-15T04:05:28.934Z,20.84
2016-08-15T04:06:32.127Z,20.81
2016-08-15T04:07:33.106Z,20.81
2016-08-15T04:08:33.166Z,20.81
2016-08-15T04:09:34.013Z,20.81
2016-08-15T04:10:32.957Z,20.82
2016-08-15T04:11:32.319Z,20.81
2016-08-15T04:12:32.374Z,20.81
2016-08-15T04:13:41.716Z,20.81
2016-08-15T04:14:35.950Z,20.82
2016-08-15T04:15:34.015Z,20.81
2016-08-15T04:16:34.339Z,20.85
2016-08-15T04:17:27.355Z,20.81
2016-08-15T04:18:39.378Z,20.87
2016-08-15T04:19:31.340Z,20.81
2016-08-15T04:20:33.834Z,20.81
2016-08-15T04:21:34.009Z,20.81
2016-08-15T04:22:36.023Z,20.81
2016-08-15T04:23:25.663Z,20.81
2016-08-15T04:24:34.487Z,20.83
2016-08-15T04:25:36.619Z,20.81
2016-08-15T04:26:31.609Z,20.81
2016-08-15T04:27:27.701Z,20.81
2016-08-15T04:28:32.156Z,20.81
2016-08-15T04:29:31.152Z,20.81
2016-08-15T04:30:35.127Z,20.81
2016-08-15T04:31:34.469Z,20.82
2016-08-15T04:32:34.073Z,20.82
2016-08-15T04:33:14.256Z,20.82
2016-08-15T04:34:34.628Z,20.81
2016-08-15T04:35:36.549Z,20.81
2016-08-15T04:36:37.398Z,20.81
2016-08-15T04:37:35.108Z,20.88
2016-08-15T04:38:32.158Z,20.81
2016-08-15T04:39:28.802Z,20.81
2016-08-15T04:40:39.659Z,20.82
2016-08-15T04:41:34.706Z,20.81
2016-08-15T04:42:33.786Z,20.82
2016-08-15T04:43:33.540Z,20.81
2016-08-15T04:44:33.626Z,20.81
2016-08-15T04:45:32.787Z,20.83
2016-08-15T04:46:28.886Z,20.82
2016-08-15T04:47:15.329Z,20.82
2016-08-15T04:48:34.647Z,20.81
2016-08-15T04:49:30.967Z,20.82
2016-08-15T04:50:29.084Z,20.83
2016-08-15T04:51:32.083Z,20.82
2016-08-15T04:52:38.511Z,20.82
2016-08-15T04:53:34.888Z,20.82
2016-08-15T04:54:34.808Z,20.83
2016-08-15T04:55:32.137Z,20.82
2016-08-15T04:56:35.065Z,20.82
2016-08-15T04:57:32.458Z,20.82
2016-08-15T04:58:41.948Z,21.31
2016-08-15T04:59:31.904Z,21.43
2016-08-15T05:00:28.244Z,21.45
2016-08-15T05:01:38.859Z,21.46
2016-08-15T05:02:33.382Z,21.47
2016-08-15T05:03:28.037Z,21.48
2016-08-15T05:04:34.247Z,21.47
2016-08-15T05:05:40.026Z,21.13
2016-08-15T05:06:33.758Z,20.94
2016-08-15T05:07:28.254Z,20.92
2016-08-15T05:08:28.455Z,21.40
2016-08-15T05:09:28.200Z,20.91
2016-08-15T05:10:33.456Z,20.87
2016-08-15T05:11:27.015Z,20.85
2016-08-15T05:12:32.404Z,20.84
2016-08-15T05:13:31.460Z,20.84
2016-08-15T05:14:34.009Z,20.83
2016-08-15T05:15:30.224Z,20.84
2016-08-15T05:16:16.412Z,20.83
2016-08-15T05:17:31.407Z,20.83
2016-08-15T05:18:27.479Z,20.88
2016-08-15T05:19:28.265Z,20.84
2016-08-15T05:20:26.240Z,20.83
2016-08-15T05:21:36.841Z,20.83
2016-08-15T05:22:28.090Z,20.83
2016-08-15T05:23:26.705Z,20.83
2016-08-15T05:24:33.505Z,20.83
2016-08-15T05:25:30.808Z,20.83
2016-08-15T05:26:33.921Z,20.84
2016-08-15T05:27:23.515Z,20.83
2016-08-15T05:28:27.187Z,20.84
2016-08-15T05:29:37.326Z,20.83
2016-08-15T05:30:15.412Z,20.83
2016-08-15T05:31:14.838Z,20.84
2016-08-15T05:32:29.132Z,20.84
2016-08-15T05:33:27.224Z,20.83
2016-08-15T05:34:30.691Z,20.83
2016-08-15T05:35:25.999Z,20.84
2016-08-15T05:36:20.712Z,20.83
2016-08-15T05:37:33.445Z,20.84
2016-08-15T05:38:29.244Z,21.39
2016-08-15T05:39:27.973Z,21.43
2016-08-15T05:40:33.800Z,21.45
2016-08-15T05:41:33.465Z,21.13
2016-08-15T05:42:37.935Z,20.98
2016-08-15T05:43:37.092Z,20.89
2016-08-15T05:44:33.485Z,20.88
2016-08-15T05:45:32.478Z,20.86
2016-08-15T05:46:33.635Z,20.86
2016-08-15T05:47:28.552Z,20.85
2016-08-15T05:48:33.933Z,20.85
2016-08-15T05:49:18.760Z,20.85
2016-08-15T05:50:13.343Z,20.85
2016-08-15T05:51:15.858Z,20.86
2016-08-15T05:52:15.141Z,20.85
2016-08-15T05:53:17.066Z,20.84
2016-08-15T05:54:23.164Z,20.84
2016-08-15T05:55:13.413Z,20.84
2016-08-15T05:56:16.898Z,20.85
2016-08-15T05:57:20.990Z,20.85
2016-08-15T05:58:15.174Z,20.85
2016-08-15T05:59:24.524Z,20.84
2016-08-15T06:00:23.750Z,20.85
2016-08-15T06:01:28.228Z,20.85
2016-08-15T06:02:22.646Z,20.86
2016-08-15T06:03:22.593Z,20.85
2016-08-15T06:04:15.720Z,20.86
2016-08-15T06:05:16.520Z,20.86
2016-08-15T06:06:23.752Z,20.86
2016-08-15T06:07:22.794Z,20.85
2016-08-15T06:08:21.104Z,20.86
2016-08-15T06:09:22.711Z,20.86
2016-08-15T06:10:26.820Z,20.87
2016-08-15T06:11:28.486Z,20.93
2016-08-15T06:12:16.456Z,20.86
2016-08-15T06:13:25.651Z,20.86
2016-08-15T06:14:15.305Z,20.88
2016-08-15T06:15:24.054Z,20.85
2016-08-15T06:16:23.525Z,20.86
2016-08-15T06:17:22.503Z,20.86
2016-08-15T06:18:14.969Z,20.86
2016-08-15T06:19:22.534Z,20.87
2016-08-15T06:20:21.665Z,20.87
2016-08-15T06:21:24.094Z,20.87
2016-08-15T06:22:22.591Z,20.87
2016-08-15T06:23:20.395Z,20.87
2016-08-15T06:24:19.204Z,21.41
2016-08-15T06:25:22.324Z,21.11
2016-08-15T06:26:27.884Z,20.95
2016-08-15T06:27:28.634Z,20.92
2016-08-15T06:28:31.980Z,20.90
2016-08-15T06:29:30.647Z,20.89
2016-08-15T06:30:34.470Z,20.90
2016-08-15T06:31:37.600Z,20.87
2016-08-15T06:32:42.177Z,20.86
2016-08-15T06:33:32.530Z,20.87
2016-08-15T06:34:27.775Z,20.86
2016-08-15T06:35:27.483Z,20.87
2016-08-15T06:36:34.036Z,20.87
2016-08-15T06:37:25.554Z,20.87
2016-08-15T06:38:27.560Z,20.87
2016-08-15T06:39:34.359Z,21.41
2016-08-15T06:40:42.158Z,21.46
2016-08-15T06:41:37.205Z,21.49
2016-08-15T06:42:28.615Z,21.51
2016-08-15T06:43:44.640Z,21.51
2016-08-15T06:44:33.207Z,21.52
2016-08-15T06:45:34.033Z,21.53
2016-08-15T06:46:38.482Z,21.54
2016-08-15T06:47:34.769Z,21.20
2016-08-15T06:48:27.861Z,20.99
2016-08-15T06:49:29.003Z,20.95
2016-08-15T06:50:29.641Z,20.91
2016-08-15T06:51:33.752Z,20.90
2016-08-15T06:52:29.007Z,20.89
2016-08-15T06:53:32.809Z,20.89
2016-08-15T06:54:39.107Z,20.88
2016-08-15T06:55:39.181Z,20.88
2016-08-15T06:56:34.010Z,20.91
2016-08-15T06:57:34.725Z,21.43
2016-08-15T06:58:32.242Z,21.48
2016-08-15T06:59:26.610Z,21.50
2016-08-15T07:00:33.874Z,21.51
2016-08-15T07:01:34.786Z,21.54
2016-08-15T07:02:34.050Z,21.18
2016-08-15T07:03:34.750Z,21.02
2016-08-15T07:04:34.278Z,20.95
2016-08-15T07:05:28.622Z,20.92
2016-08-15T07:06:28.458Z,20.95
2016-08-15T07:07:33.773Z,20.96
2016-08-15T07:08:36.204Z,20.89
2016-08-15T07:09:23.909Z,20.90
2016-08-15T07:10:29.070Z,20.89
2016-08-15T07:11:29.148Z,20.89
2016-08-15T07:12:33.451Z,20.91
2016-08-15T07:13:33.145Z,20.89
2016-08-15T07:14:34.245Z,20.89
2016-08-15T07:15:38.637Z,20.89
2016-08-15T07:16:27.835Z,20.88
2016-08-15T07:17:37.828Z,20.88
2016-08-15T07:18:34.123Z,20.89
2016-08-15T07:19:37.122Z,20.89
2016-08-15T07:20:28.363Z,20.89
2016-08-15T07:21:34.204Z,20.88
2016-08-15T07:22:28.861Z,20.91
2016-08-15T07:23:35.190Z,20.90
2016-08-15T07:24:29.291Z,20.90
2016-08-15T07:25:28.950Z,20.91
2016-08-15T07:26:34.396Z,20.92
2016-08-15T07:27:34.410Z,20.91
2016-08-15T07:28:43.281Z,20.91
2016-08-15T07:29:34.248Z,20.91
2016-08-15T07:30:24.107Z,20.91
2016-08-15T07:31:34.817Z,21.46
2016-08-15T07:32:25.953Z,21.52
2016-08-15T07:33:26.398Z,21.01
2016-08-15T07:34:35.018Z,20.97
2016-08-15T07:35:32.326Z,20.94
2016-08-15T07:36:39.327Z,20.94
2016-08-15T07:37:33.898Z,20.92
2016-08-15T07:38:38.091Z,21.02
2016-08-15T07:39:26.727Z,21.49
2016-08-15T07:40:26.227Z,21.53
2016-08-15T07:41:36.352Z,21.56
2016-08-15T07:42:41.705Z,21.57
2016-08-15T07:43:31.771Z,21.58
2016-08-15T07:44:34.037Z,21.59
2016-08-15T07:45:29.220Z,21.06
2016-08-15T07:46:27.878Z,21.00
2016-08-15T07:47:28.627Z,20.98
2016-08-15T07:48:34.357Z,20.96
2016-08-15T07:49:35.142Z,20.95
2016-08-15T07:50:27.692Z,20.98
2016-08-15T07:51:24.278Z,20.94
2016-08-15T07:52:28.159Z,20.95
2016-08-15T07:53:28.843Z,20.95
2016-08-15T07:54:27.081Z,20.95
2016-08-15T07:55:34.343Z,20.95
2016-08-15T07:56:29.007Z,20.96
2016-08-15T07:57:28.163Z,20.95
2016-08-15T07:58:40.376Z,20.96
2016-08-15T07:59:31.075Z,20.96
2016-08-15T08:00:27.904Z,20.96
2016-08-15T08:01:37.535Z,20.96
2016-08-15T08:02:26.926Z,20.96
2016-08-15T08:03:28.635Z,20.96
2016-08-15T08:04:42.132Z,20.96
2016-08-15T08:05:37.107Z,20.96
2016-08-15T08:06:30.668Z,20.96
2016-08-15T08:07:28.097Z,20.99
2016-08-15T08:08:29.331Z,20.97
2016-08-15T08:09:31.719Z,20.97
2016-08-15T08:10:28.210Z,20.98
2016-08-15T08:11:22.014Z,20.97
2016-08-15T08:12:27.197Z,20.98
2016-08-15T08:13:32.419Z,20.98
2016-08-15T08:14:32.018Z,20.97
2016-08-15T08:15:34.842Z,21.02
2016-08-15T08:16:38.670Z,20.98
2016-08-15T08:17:32.407Z,20.98
2016-08-15T08:18:28.923Z,20.98
2016-08-15T08:19:39.669Z,20.99
2016-08-15T08:20:28.887Z,20.99
2016-08-15T08:21:27.196Z,20.98
2016-08-15T08:22:33.737Z,20.99
2016-08-15T08:23:26.665Z,21.08
2016-08-15T08:24:34.464Z,21.17
2016-08-15T08:25:28.244Z,21.05
2016-08-15T08:26:28.907Z,21.02
2016-08-15T08:27:26.368Z,21.00
2016-08-15T08:28:40.478Z,21.00
2016-08-15T08:29:25.700Z,21.00
2016-08-15T08:30:41.158Z,21.00
2016-08-15T08:31:31.918Z,21.02
2016-08-15T08:32:32.648Z,21.00
2016-08-15T08:33:28.182Z,21.00
2016-08-15T08:34:24.279Z,21.00
2016-08-15T08:35:32.433Z,21.01
2016-08-15T08:36:37.716Z,21.00
2016-08-15T08:37:24.060Z,21.00
2016-08-15T08:38:19.388Z,21.01
2016-08-15T08:39:37.675Z,21.00
2016-08-15T08:40:27.940Z,21.01
2016-08-15T08:41:28.302Z,21.02
2016-08-15T08:42:40.288Z,21.01
2016-08-15T08:43:32.137Z,21.01
2016-08-15T08:44:29.460Z,21.01
2016-08-15T08:45:24.512Z,21.01
2016-08-15T08:46:34.661Z,21.05
2016-08-15T08:47:27.722Z,21.18
2016-08-15T08:48:27.904Z,21.07
2016-08-15T08:49:27.955Z,21.08
2016-08-15T08:50:24.510Z,21.04
2016-08-15T08:51:12.752Z,21.03
2016-08-15T08:52:32.362Z,21.02
2016-08-15T08:53:30.308Z,21.04
2016-08-15T08:54:47.008Z,21.02
2016-08-15T08:55:38.112Z,21.02
2016-08-15T08:56:39.223Z,21.02
2016-08-15T08:57:32.233Z,21.02
2016-08-15T08:58:33.014Z,21.03
2016-08-15T08:59:33.457Z,21.03
2016-08-15T09:00:30.188Z,21.03
2016-08-15T09:01:28.685Z,21.03
2016-08-15T09:02:44.617Z,21.03
2016-08-15T09:03:35.039Z,21.03
2016-08-15T09:04:34.378Z,21.03
2016-08-15T09:05:33.833Z,21.03
2016-08-15T09:06:33.208Z,21.04
2016-08-15T09:07:32.597Z,21.02
2016-08-15T09:08:40.322Z,21.03
2016-08-15T09:09:28.050Z,21.03
2016-08-15T09:10:41.370Z,21.57
2016-08-15T09:11:26.788Z,21.28
2016-08-15T09:12:33.735Z,21.16
2016-08-15T09:13:38.375Z,21.08
2016-08-15T09:14:39.184Z,21.07
2016-08-15T09:15:32.742Z,21.06
2016-08-15T09:16:38.506Z,21.05
2016-08-15T09:17:28.845Z,21.06
2016-08-15T09:18:27.682Z,21.10
2016-08-15T09:19:30.474Z,21.05
2016-08-15T09:20:32.321Z,21.05
2016-08-15T09:21:30.269Z,21.05
2016-08-15T09:22:34.589Z,21.06
2016-08-15T09:23:28.375Z,21.06
2016-08-15T09:24:28.275Z,21.06
2016-08-15T09:25:27.789Z,21.06
2016-08-15T09:26:31.224Z,21.06
2016-08-15T09:27:27.766Z,21.06
2016-08-15T09:28:40.623Z,21.06
2016-08-15T09:29:33.753Z,21.10
2016-08-15T09:30:45.827Z,21.08
2016-08-15T09:31:28.760Z,21.07
2016-08-15T09:32:34.454Z,21.07
2016-08-15T09:33:36.251Z,21.07
2016-08-15T09:34:28.016Z,21.07
2016-08-15T09:35:28.311Z,21.08
2016-08-15T09:36:34.800Z,21.11
2016-08-15T09:37:21.579Z,21.08
2016-08-15T09:38:18.414Z,21.08
2016-08-15T09:39:28.230Z,21.08
2016-08-15T09:40:27.742Z,21.10
2016-08-15T09:41:34.489Z,21.09
2016-08-15T09:42:33.098Z,21.08
2016-08-15T09:43:31.372Z,21.08
2016-08-15T09:44:33.109Z,21.09
2016-08-15T09:45:28.498Z,21.09
2016-08-15T09:46:28.697Z,21.09
2016-08-15T09:47:28.838Z,21.10
2016-08-15T09:48:34.190Z,21.09
2016-08-15T09:49:27.769Z,21.09
2016-08-15T09:50:35.729Z,21.09
2016-08-15T09:51:27.756Z,21.09
2016-08-15T09:52:36.327Z,21.09
2016-08-15T09:53:33.445Z,21.10
2016-08-15T09:54:33.782Z,21.13
2016-08-15T09:55:30.511Z,21.09
2016-08-15T09:56:34.637Z,21.10
2016-08-15T09:57:35.782Z,21.13
2016-08-15T09:58:38.639Z,21.10
2016-08-15T09:59:33.857Z,21.10
2016-08-15T10:00:30.450Z,21.11
2016-08-15T10:01:32.165Z,21.09
2016-08-15T10:02:24.090Z,21.10
2016-08-15T10:03:26.307Z,21.10
2016-08-15T10:04:22.876Z,21.09
2016-08-15T10:05:31.180Z,21.10
2016-08-15T10:06:24.399Z,21.11
2016-08-15T10:07:38.095Z,21.10
2016-08-15T10:08:35.967Z,21.17
2016-08-15T10:09:14.760Z,21.11
2016-08-15T10:10:31.291Z,21.11
2016-08-15T10:11:28.388Z,21.11
2016-08-15T10:12:29.128Z,21.11
2016-08-15T10:13:43.487Z,21.11
2016-08-15T10:14:39.143Z,21.11
2016-08-15T10:15:24.151Z,21.16
2016-08-15T10:16:26.601Z,21.12
2016-08-15T10:17:28.864Z,21.15
2016-08-15T10:18:34.035Z,21.11
2016-08-15T10:19:37.661Z,21.10
2016-08-15T10:20:32.477Z,21.10
2016-08-15T10:21:33.307Z,21.63
2016-08-15T10:22:34.494Z,21.69
2016-08-15T10:23:34.590Z,21.72
2016-08-15T10:24:24.768Z,21.74
2016-08-15T10:25:33.104Z,21.75
2016-08-15T10:26:27.494Z,21.75
2016-08-15T10:27:33.838Z,21.76
2016-08-15T10:28:27.366Z,21.75
2016-08-15T10:29:23.167Z,21.76
2016-08-15T10:30:27.917Z,21.75
2016-08-15T10:31:27.379Z,21.22
2016-08-15T10:32:39.473Z,21.17
2016-08-15T10:33:37.903Z,21.14
2016-08-15T10:34:32.394Z,21.14
2016-08-15T10:35:38.576Z,21.13
2016-08-15T10:36:44.390Z,21.12
2016-08-15T10:37:35.504Z,21.14
2016-08-15T10:38:26.788Z,21.63
2016-08-15T10:39:28.585Z,21.21
2016-08-15T10:40:34.430Z,21.14
2016-08-15T10:41:27.773Z,21.12
2016-08-15T10:42:34.404Z,21.12
2016-08-15T10:43:29.370Z,21.11
2016-08-15T10:44:36.686Z,21.11
2016-08-15T10:45:28.493Z,21.11
2016-08-15T10:46:33.305Z,21.11
2016-08-15T10:47:23.407Z,21.10
2016-08-15T10:48:26.136Z,21.11
2016-08-15T10:49:27.821Z,21.12
2016-08-15T10:50:37.716Z,21.15
2016-08-15T10:51:34.848Z,21.11
2016-08-15T10:52:32.120Z,21.10
2016-08-15T10:53:34.597Z,21.12
2016-08-15T10:54:33.517Z,21.16
2016-08-15T10:55:37.586Z,21.12
2016-08-15T10:56:39.109Z,21.11
2016-08-15T10:57:33.405Z,21.13
2016-08-15T10:58:30.181Z,21.12
2016-08-15T10:59:28.144Z,21.12
2016-08-15T11:00:32.883Z,21.12
2016-08-15T11:01:27.399Z,21.13
2016-08-15T11:02:27.860Z,21.12
2016-08-15T11:03:33.403Z,21.12
2016-08-15T11:04:39.227Z,21.12
2016-08-15T11:05:29.222Z,21.12
2016-08-15T11:06:40.230Z,21.13
2016-08-15T11:07:22.620Z,21.13
2016-08-15T11:08:33.626Z,21.13
2016-08-15T11:09:27.148Z,21.15
2016-08-15T11:10:27.840Z,21.14
2016-08-15T11:11:23.303Z,21.31
2016-08-15T11:12:34.033Z,21.20
2016-08-15T11:13:31.617Z,21.16
2016-08-15T11:14:35.521Z,21.14
2016-08-15T11:15:20.694Z,21.13
2016-08-15T11:16:29.193Z,21.17
2016-08-15T11:17:29.441Z,21.14
2016-08-15T11:18:34.628Z,21.15
2016-08-15T11:19:24.716Z,21.14
2016-08-15T11:20:34.916Z,21.15
2016-08-15T11:21:32.349Z,21.14
2016-08-15T11:22:27.212Z,21.15
2016-08-15T11:23:28.277Z,21.15
2016-08-15T11:24:32.916Z,21.16
2016-08-15T11:25:26.749Z,21.14
2016-08-15T11:26:33.816Z,21.16
2016-08-15T11:27:33.670Z,21.16
2016-08-15T11:28:43.079Z,21.15
2016-08-15T11:29:43.895Z,21.16
2016-08-15T11:30:46.693Z,21.16
2016-08-15T11:31:41.985Z,21.16
2016-08-15T11:32:36.670Z,21.16
2016-08-15T11:33:33.011Z,21.15
2016-08-15T11:34:37.241Z,21.18
2016-08-15T11:35:42.733Z,21.19
2016-08-15T11:36:36.280Z,21.18
2016-08-15T11:37:31.673Z,21.17
2016-08-15T11:38:37.976Z,21.17
2016-08-15T11:39:16.459Z,21.17
2016-08-15T11:40:36.225Z,21.18
2016-08-15T11:41:31.827Z,21.17
2016-08-15T11:42:28.217Z,21.20
2016-08-15T11:43:36.562Z,21.17
2016-08-15T11:44:36.461Z,21.18
2016-08-15T11:45:35.827Z,21.17
2016-08-15T11:46:35.827Z,21.17
2016-08-15T11:47:42.288Z,21.18
2016-08-15T11:48:34.211Z,21.16
2016-08-15T11:49:37.234Z,21.16
2016-08-15T11:50:34.582Z,21.15
2016-08-15T11:51:30.667Z,21.16
2016-08-15T11:52:29.088Z,21.16
2016-08-15T11:53:37.507Z,21.17
2016-08-15T11:54:43.076Z,21.16
2016-08-15T11:55:28.447Z,21.70
2016-08-15T11:56:36.739Z,21.76
2016-08-15T11:57:30.915Z,21.79
2016-08-15T11:58:44.916Z,21.81
2016-08-15T11:59:32.932Z,21.82
2016-08-15T12:00:34.011Z,21.82
2016-08-15T12:01:49.248Z,21.82
2016-08-15T12:02:42.702Z,21.81
2016-08-15T12:03:45.753Z,21.82
2016-08-15T12:04:33.948Z,21.29
2016-08-15T12:05:23.315Z,21.24
2016-08-15T12:06:34.561Z,21.20
2016-08-15T12:07:26.059Z,21.19
2016-08-15T12:08:40.824Z,21.18
2016-08-15T12:09:37.141Z,21.18
2016-08-15T12:10:32.024Z,21.19
2016-08-15T12:11:34.719Z,21.19
2016-08-15T12:12:29.248Z,21.18
2016-08-15T12:13:32.364Z,21.19
2016-08-15T12:14:27.980Z,21.18
2016-08-15T12:15:28.337Z,21.18
2016-08-15T12:16:43.020Z,21.19
2016-08-15T12:18:37.212Z,21.21
2016-08-15T12:19:23.653Z,21.19
2016-08-15T12:20:28.724Z,21.18
2016-08-15T12:21:37.130Z,21.20
2016-08-15T12:22:34.810Z,21.19
2016-08-15T12:23:34.359Z,21.20
2016-08-15T12:24:31.864Z,21.20
2016-08-15T12:25:32.630Z,21.19
2016-08-15T12:26:31.201Z,21.20
2016-08-15T12:27:36.672Z,21.23
2016-08-15T12:28:35.199Z,21.20
2016-08-15T12:29:33.738Z,21.21
2016-08-15T12:30:34.337Z,21.20
2016-08-15T12:31:32.930Z,21.21
2016-08-15T12:32:28.238Z,21.20
2016-08-15T12:33:41.022Z,21.19
2016-08-15T12:34:32.349Z,21.19
2016-08-15T12:35:27.642Z,21.19
2016-08-15T12:36:24.607Z,21.19
2016-08-15T12:37:36.688Z,21.20
2016-08-15T12:38:28.693Z,21.22
2016-08-15T12:39:22.788Z,21.20
2016-08-15T12:40:16.174Z,21.20
2016-08-15T12:41:32.901Z,21.19
2016-08-15T12:42:33.011Z,21.40
2016-08-15T12:43:32.503Z,21.23
2016-08-15T12:44:28.970Z,21.21
2016-08-15T12:45:35.291Z,21.19
2016-08-15T12:46:35.098Z,21.18
2016-08-15T12:47:35.363Z,21.18
2016-08-15T12:48:33.667Z,21.18
2016-08-15T12:49:17.426Z,21.17
2016-08-15T12:50:34.164Z,21.17
2016-08-15T12:51:34.394Z,21.17
2016-08-15T12:52:29.528Z,21.19
2016-08-15T12:53:38.825Z,21.21